Terminal Aerodrome Forecast
Issued by NWS

Home | Current Version | Previous Version | Graphics & Text | Print | Product List | Glossary On
Versions: 1 2 3 4 5 6 7 8 9 10 11 12 13 14 15 16 17 18 19 20 21 22 23 24 25 26 27 28 29
000
FTUS43 KLSX 240600 AAA
TAFSUS
TAF AMD
KSUS 240641Z 2407/2506 05008KT P6SM BKN015
     FM241300 09011KT 4SM -SHRA VCTS OVC015CB
     FM241700 11013KT P6SM BKN025
     FM250300 16013KT P6SM BKN020
      TEMPO 2503/2505 3SM TSRA OVC015CB=

USA.gov is the U.S. government's official web portal to all federal, state and local government web resources and services.